sensor_id;sensor_type;location;lat;lon;timestamp;pressure;altitude;pressure_sealevel;temperature;humidity
81897;BME280;71360;43.506;1.500;2024-03-06T00:01:16;99590.41;;;6.91;78.46
81897;BME280;71360;43.506;1.500;2024-03-06T00:03:41;99589.50;;;6.90;78.26
81897;BME280;71360;43.506;1.500;2024-03-06T00:06:07;99588.66;;;6.90;78.81
81897;BME280;71360;43.506;1.500;2024-03-06T00:08:32;99590.47;;;6.88;78.75
81897;BME280;71360;43.506;1.500;2024-03-06T00:10:57;99590.50;;;6.86;78.37
81897;BME280;71360;43.506;1.500;2024-03-06T00:13:23;99590.56;;;6.85;78.63
81897;BME280;71360;43.506;1.500;2024-03-06T00:15:48;99592.34;;;6.84;78.77
81897;BME280;71360;43.506;1.500;2024-03-06T00:18:14;99602.03;;;6.85;78.71
81897;BME280;71360;43.506;1.500;2024-03-06T00:20:39;99603.91;;;6.83;78.50
81897;BME280;71360;43.506;1.500;2024-03-06T00:23:07;99602.16;;;6.82;79.08
81897;BME280;71360;43.506;1.500;2024-03-06T00:25:33;99610.06;;;6.84;78.65
81897;BME280;71360;43.506;1.500;2024-03-06T00:27:59;99601.19;;;6.85;78.84
81897;BME280;71360;43.506;1.500;2024-03-06T00:30:25;99610.97;;;6.84;78.70
81897;BME280;71360;43.506;1.500;2024-03-06T00:32:51;99605.66;;;6.84;78.71
81897;BME280;71360;43.506;1.500;2024-03-06T00:35:16;99603.00;;;6.84;78.81
81897;BME280;71360;43.506;1.500;2024-03-06T00:37:42;99603.84;;;6.85;78.83
81897;BME280;71360;43.506;1.500;2024-03-06T00:40:08;99608.16;;;6.89;78.90
81897;BME280;71360;43.506;1.500;2024-03-06T00:42:33;99609.13;;;6.86;78.34
81897;BME280;71360;43.506;1.500;2024-03-06T00:45:00;99602.94;;;6.86;78.31
81897;BME280;71360;43.506;1.500;2024-03-06T00:47:27;99604.69;;;6.85;78.62
81897;BME280;71360;43.506;1.500;2024-03-06T00:49:53;99609.13;;;6.86;78.46
81897;BME280;71360;43.506;1.500;2024-03-06T00:52:18;99610.00;;;6.87;78.32
81897;BME280;71360;43.506;1.500;2024-03-06T00:54:43;99609.13;;;6.86;78.50
81897;BME280;71360;43.506;1.500;2024-03-06T00:57:09;99618.84;;;6.87;78.35
81897;BME280;71360;43.506;1.500;2024-03-06T00:59:35;99617.09;;;6.86;78.18
81897;BME280;71360;43.506;1.500;2024-03-06T01:02:01;99611.78;;;6.86;78.07
81897;BME280;71360;43.506;1.500;2024-03-06T01:04:27;99607.38;;;6.85;78.44
81897;BME280;71360;43.506;1.500;2024-03-06T01:06:52;99602.03;;;6.85;77.61
81897;BME280;71360;43.506;1.500;2024-03-06T01:09:19;99601.13;;;6.86;78.17
81897;BME280;71360;43.506;1.500;2024-03-06T01:11:44;99600.22;;;6.87;78.00
81897;BME280;71360;43.506;1.500;2024-03-06T01:14:12;99609.94;;;6.88;78.39
81897;BME280;71360;43.506;1.500;2024-03-06T01:16:37;99616.06;;;6.90;77.63
81897;BME280;71360;43.506;1.500;2024-03-06T01:19:03;99610.75;;;6.90;77.89
81897;BME280;71360;43.506;1.500;2024-03-06T01:21:28;99610.75;;;6.90;77.89
81897;BME280;71360;43.506;1.500;2024-03-06T01:23:54;99595.72;;;6.89;78.09
81897;BME280;71360;43.506;1.500;2024-03-06T01:26:20;99592.09;;;6.92;78.25
81897;BME280;71360;43.506;1.500;2024-03-06T01:28:46;99594.81;;;6.90;77.99
81897;BME280;71360;43.506;1.500;2024-03-06T01:31:11;99585.03;;;6.92;77.94
81897;BME280;71360;43.506;1.500;2024-03-06T01:33:37;99588.53;;;6.93;77.60
81897;BME280;71360;43.506;1.500;2024-03-06T01:36:04;99594.69;;;6.95;77.84
81897;BME280;71360;43.506;1.500;2024-03-06T01:38:30;99592.91;;;6.96;77.58
81897;BME280;71360;43.506;1.500;2024-03-06T01:40:55;99587.59;;;6.96;77.74
81897;BME280;71360;43.506;1.500;2024-03-06T01:43:22;99595.50;;;6.97;77.78
81897;BME280;71360;43.506;1.500;2024-03-06T01:45:49;99589.34;;;6.97;77.44
81897;BME280;71360;43.506;1.500;2024-03-06T01:48:22;99594.66;;;6.97;77.35
81897;BME280;71360;43.506;1.500;2024-03-06T01:50:48;99585.75;;;6.98;77.94
81897;BME280;71360;43.506;1.500;2024-03-06T01:53:16;99571.59;;;6.97;77.64
81897;BME280;71360;43.506;1.500;2024-03-06T01:55:42;99573.38;;;6.97;77.85
81897;BME280;71360;43.506;1.500;2024-03-06T01:58:08;99580.44;;;6.98;77.66
81897;BME280;71360;43.506;1.500;2024-03-06T02:00:34;99572.44;;;6.99;77.51
81897;BME280;71360;43.506;1.500;2024-03-06T02:03:01;99565.31;;;7.00;77.47
81897;BME280;71360;43.506;1.500;2024-03-06T02:05:28;99553.88;;;6.98;77.26
81897;BME280;71360;43.506;1.500;2024-03-06T02:07:55;99553.88;;;6.98;77.65
81897;BME280;71360;43.506;1.500;2024-03-06T02:10:21;99545.00;;;6.97;77.83
81897;BME280;71360;43.506;1.500;2024-03-06T02:12:48;99546.81;;;6.97;77.43
81897;BME280;71360;43.506;1.500;2024-03-06T02:15:14;99547.66;;;6.97;77.39
81897;BME280;71360;43.506;1.500;2024-03-06T02:17:40;99537.09;;;6.96;77.45
81897;BME280;71360;43.506;1.500;2024-03-06T02:20:06;99538.00;;;6.95;77.28
81897;BME280;71360;43.506;1.500;2024-03-06T02:22:38;99540.59;;;6.96;77.21
81897;BME280;71360;43.506;1.500;2024-03-06T02:25:04;99527.38;;;6.95;77.24
81897;BME280;71360;43.506;1.500;2024-03-06T02:27:31;99532.69;;;6.95;77.02
81897;BME280;71360;43.506;1.500;2024-03-06T02:29:56;99527.38;;;6.95;77.37
81897;BME280;71360;43.506;1.500;2024-03-06T02:32:23;99529.13;;;6.96;76.95
81897;BME280;71360;43.506;1.500;2024-03-06T02:34:50;99524.66;;;6.96;77.36
81897;BME280;71360;43.506;1.500;2024-03-06T02:37:15;99515.84;;;6.96;77.14
81897;BME280;71360;43.506;1.500;2024-03-06T02:39:41;99522.94;;;6.95;77.26
81897;BME280;71360;43.506;1.500;2024-03-06T02:42:07;99520.28;;;6.95;77.16
81897;BME280;71360;43.506;1.500;2024-03-06T02:44:32;99516.75;;;6.95;77.55
81897;BME280;71360;43.506;1.500;2024-03-06T02:46:59;99513.28;;;6.92;77.11
81897;BME280;71360;43.506;1.500;2024-03-06T02:49:24;99521.19;;;6.94;77.07
81897;BME280;71360;43.506;1.500;2024-03-06T02:51:50;99516.84;;;6.91;77.44
81897;BME280;71360;43.506;1.500;2024-03-06T02:54:16;99511.63;;;6.88;77.07
81897;BME280;71360;43.506;1.500;2024-03-06T02:56:42;99516.94;;;6.88;77.09
81897;BME280;71360;43.506;1.500;2024-03-06T02:59:08;99513.56;;;6.83;76.93
81897;BME280;71360;43.506;1.500;2024-03-06T03:01:33;99509.16;;;6.82;77.09
81897;BME280;71360;43.506;1.500;2024-03-06T03:03:59;99497.72;;;6.80;77.63
81897;BME280;71360;43.506;1.500;2024-03-06T03:06:25;99497.78;;;6.79;77.44
81897;BME280;71360;43.506;1.500;2024-03-06T03:08:50;99500.44;;;6.77;77.47
81897;BME280;71360;43.506;1.500;2024-03-06T03:11:16;99491.69;;;6.75;77.25
81897;BME280;71360;43.506;1.500;2024-03-06T03:13:42;99493.44;;;6.74;77.51
81897;BME280;71360;43.506;1.500;2024-03-06T03:16:15;99501.41;;;6.74;77.16
81897;BME280;71360;43.506;1.500;2024-03-06T03:18:43;99501.47;;;6.73;77.13
81897;BME280;71360;43.506;1.500;2024-03-06T03:21:09;99504.19;;;6.71;77.09
81897;BME280;71360;43.506;1.500;2024-03-06T03:23:36;99505.13;;;6.69;77.53
81897;BME280;71360;43.506;1.500;2024-03-06T03:26:02;99501.78;;;6.64;77.49
81897;BME280;71360;43.506;1.500;2024-03-06T03:28:29;99497.41;;;6.61;77.27
81897;BME280;71360;43.506;1.500;2024-03-06T03:30:55;99492.16;;;6.59;77.68
81897;BME280;71360;43.506;1.500;2024-03-06T03:33:22;99494.88;;;6.56;77.26
81897;BME280;71360;43.506;1.500;2024-03-06T03:35:48;99486.09;;;6.54;77.06
81897;BME280;71360;43.506;1.500;2024-03-06T03:38:14;99495.88;;;6.52;77.70
81897;BME280;71360;43.506;1.500;2024-03-06T03:40:39;99497.63;;;6.53;77.48
81897;BME280;71360;43.506;1.500;2024-03-06T03:43:05;99490.56;;;6.52;77.37
81897;BME280;71360;43.506;1.500;2024-03-06T03:45:34;99491.47;;;6.53;77.64
81897;BME280;71360;43.506;1.500;2024-03-06T03:48:04;99500.28;;;6.53;77.92
81897;BME280;71360;43.506;1.500;2024-03-06T03:50:30;99485.28;;;6.52;77.86
81897;BME280;71360;43.506;1.500;2024-03-06T03:52:56;99490.56;;;6.52;77.50
81897;BME280;71360;43.506;1.500;2024-03-06T03:55:24;99486.16;;;6.53;77.64
81897;BME280;71360;43.506;1.500;2024-03-06T03:57:50;99478.22;;;6.51;78.07
81897;BME280;71360;43.506;1.500;2024-03-06T04:00:17;99477.41;;;6.49;77.72
81897;BME280;71360;43.506;1.500;2024-03-06T04:02:43;99479.16;;;6.50;77.54
81897;BME280;71360;43.506;1.500;2024-03-06T04:05:09;99480.91;;;6.50;77.74
81897;BME280;71360;43.506;1.500;2024-03-06T04:07:35;99481.81;;;6.50;77.47
81897;BME280;71360;43.506;1.500;2024-03-06T04:10:02;99481.84;;;6.49;77.71
81897;BME280;71360;43.506;1.500;2024-03-06T04:12:27;99480.16;;;6.46;77.73
81897;BME280;71360;43.506;1.500;2024-03-06T04:14:53;99477.50;;;6.46;77.88
81897;BME280;71360;43.506;1.500;2024-03-06T04:17:19;99493.47;;;6.45;77.91
81897;BME280;71360;43.506;1.500;2024-03-06T04:19:44;99489.03;;;6.45;77.69
81897;BME280;71360;43.506;1.500;2024-03-06T04:22:10;99487.28;;;6.44;77.68
81897;BME280;71360;43.506;1.500;2024-03-06T04:24:35;99491.75;;;6.44;78.00
81897;BME280;71360;43.506;1.500;2024-03-06T04:27:01;99493.50;;;6.43;78.16
81897;BME280;71360;43.506;1.500;2024-03-06T04:29:27;99493.56;;;6.41;77.95
81897;BME280;71360;43.506;1.500;2024-03-06T04:31:52;99494.44;;;6.42;77.46
81897;BME280;71360;43.506;1.500;2024-03-06T04:34:18;99486.47;;;6.42;77.77
81897;BME280;71360;43.506;1.500;2024-03-06T04:36:45;99494.44;;;6.42;77.95
81897;BME280;71360;43.506;1.500;2024-03-06T04:39:10;99496.22;;;6.41;78.14
81897;BME280;71360;43.506;1.500;2024-03-06T04:41:37;99501.50;;;6.41;77.99
81897;BME280;71360;43.506;1.500;2024-03-06T04:44:02;99505.91;;;6.42;77.95
81897;BME280;71360;43.506;1.500;2024-03-06T04:46:28;99498.81;;;6.43;78.20
81897;BME280;71360;43.506;1.500;2024-03-06T04:48:53;99509.44;;;6.43;78.24
81897;BME280;71360;43.506;1.500;2024-03-06T04:51:19;99502.41;;;6.42;77.93
81897;BME280;71360;43.506;1.500;2024-03-06T04:53:45;99494.44;;;6.42;77.94
81897;BME280;71360;43.506;1.500;2024-03-06T04:56:11;99488.19;;;6.43;78.65
81897;BME280;71360;43.506;1.500;2024-03-06T04:58:36;99493.47;;;6.45;78.43
81897;BME280;71360;43.506;1.500;2024-03-06T05:01:02;99487.28;;;6.44;78.98
81897;BME280;71360;43.506;1.500;2024-03-06T05:03:29;99488.19;;;6.43;78.44
81897;BME280;71360;43.506;1.500;2024-03-06T05:05:54;99491.78;;;6.42;79.09
81897;BME280;71360;43.506;1.500;2024-03-06T05:08:20;99494.44;;;6.42;78.94
81897;BME280;71360;43.506;1.500;2024-03-06T05:10:46;99496.22;;;6.41;78.80
81897;BME280;71360;43.506;1.500;2024-03-06T05:13:12;99487.38;;;6.41;78.87
81897;BME280;71360;43.506;1.500;2024-03-06T05:15:37;99481.19;;;6.40;79.30
81897;BME280;71360;43.506;1.500;2024-03-06T05:18:05;99489.13;;;6.42;79.29
81897;BME280;71360;43.506;1.500;2024-03-06T05:20:31;99497.09;;;6.42;78.89
81897;BME280;71360;43.506;1.500;2024-03-06T05:22:57;99492.66;;;6.42;79.43
81897;BME280;71360;43.506;1.500;2024-03-06T05:25:22;99497.09;;;6.42;79.51
81897;BME280;71360;43.506;1.500;2024-03-06T05:27:48;99486.47;;;6.42;79.61
81897;BME280;71360;43.506;1.500;2024-03-06T05:30:14;99487.28;;;6.44;79.75
81897;BME280;71360;43.506;1.500;2024-03-06T05:32:40;99482.03;;;6.42;79.25
81897;BME280;71360;43.506;1.500;2024-03-06T05:35:07;99490.84;;;6.43;79.48
81897;BME280;71360;43.506;1.500;2024-03-06T05:37:35;99497.06;;;6.44;79.43
81897;BME280;71360;43.506;1.500;2024-03-06T05:40:01;99497.09;;;6.42;79.42
81897;BME280;71360;43.506;1.500;2024-03-06T05:42:30;99497.13;;;6.40;79.97
81897;BME280;71360;43.506;1.500;2024-03-06T05:44:57;99490.09;;;6.39;79.61
81897;BME280;71360;43.506;1.500;2024-03-06T05:47:26;99495.47;;;6.36;79.74
81897;BME280;71360;43.506;1.500;2024-03-06T05:49:52;99500.75;;;6.38;80.16
81897;BME280;71360;43.506;1.500;2024-03-06T05:52:17;99498.09;;;6.38;80.02
81897;BME280;71360;43.506;1.500;2024-03-06T05:54:43;99498.09;;;6.38;79.69
81897;BME280;71360;43.506;1.500;2024-03-06T05:57:09;99494.56;;;6.37;80.08
81897;BME280;71360;43.506;1.500;2024-03-06T05:59:34;99487.44;;;6.39;80.32
81897;BME280;71360;43.506;1.500;2024-03-06T06:02:00;99493.59;;;6.40;79.75
81897;BME280;71360;43.506;1.500;2024-03-06T06:04:26;99485.69;;;6.38;79.68
81897;BME280;71360;43.506;1.500;2024-03-06T06:06:51;99487.47;;;6.38;79.89
81897;BME280;71360;43.506;1.500;2024-03-06T06:09:17;99482.19;;;6.36;80.01
81897;BME280;71360;43.506;1.500;2024-03-06T06:11:43;99486.75;;;6.33;80.14
81897;BME280;71360;43.506;1.500;2024-03-06T06:14:09;99486.84;;;6.30;79.97
81897;BME280;71360;43.506;1.500;2024-03-06T06:16:39;99483.44;;;6.24;79.76
81897;BME280;71360;43.506;1.500;2024-03-06T06:19:06;99494.16;;;6.20;80.41
81897;BME280;71360;43.506;1.500;2024-03-06T06:21:32;99496.13;;;6.15;80.38
81897;BME280;71360;43.506;1.500;2024-03-06T06:23:58;99503.38;;;6.08;80.13
81897;BME280;71360;43.506;1.500;2024-03-06T06:26:23;99492.91;;;6.02;80.43
81897;BME280;71360;43.506;1.500;2024-03-06T06:28:49;99502.72;;;5.98;80.78
81897;BME280;71360;43.506;1.500;2024-03-06T06:31:15;99508.09;;;5.95;80.89
81897;BME280;71360;43.506;1.500;2024-03-06T06:33:41;99501.03;;;5.94;81.33
81897;BME280;71360;43.506;1.500;2024-03-06T06:36:06;99491.31;;;5.95;80.91
81897;BME280;71360;43.506;1.500;2024-03-06T06:38:32;99500.09;;;5.98;81.35
81897;BME280;71360;43.506;1.500;2024-03-06T06:40:57;99493.03;;;5.97;81.18
81897;BME280;71360;43.506;1.500;2024-03-06T06:43:23;99494.75;;;6.00;81.02
81897;BME280;71360;43.506;1.500;2024-03-06T06:45:49;99500.03;;;6.01;80.49
81897;BME280;71360;43.506;1.500;2024-03-06T06:48:16;99508.84;;;6.02;81.12
81897;BME280;71360;43.506;1.500;2024-03-06T06:50:42;99505.31;;;6.01;81.19
81897;BME280;71360;43.506;1.500;2024-03-06T06:53:07;99498.22;;;6.02;80.97
81897;BME280;71360;43.506;1.500;2024-03-06T06:55:33;99500.84;;;6.03;81.15
81897;BME280;71360;43.506;1.500;2024-03-06T06:57:58;99496.41;;;6.04;81.28
81897;BME280;71360;43.506;1.500;2024-03-06T07:00:24;99496.38;;;6.05;80.79
81897;BME280;71360;43.506;1.500;2024-03-06T07:02:50;99500.72;;;6.06;80.65
81897;BME280;71360;43.506;1.500;2024-03-06T07:05:16;99496.31;;;6.07;80.66
81897;BME280;71360;43.506;1.500;2024-03-06T07:07:42;99498.94;;;6.08;81.00
81897;BME280;71360;43.506;1.500;2024-03-06T07:10:08;99494.53;;;6.07;80.22
81897;BME280;71360;43.506;1.500;2024-03-06T07:12:34;99486.56;;;6.07;80.76
81897;BME280;71360;43.506;1.500;2024-03-06T07:15:00;99492.72;;;6.10;80.51
81897;BME280;71360;43.506;1.500;2024-03-06T07:17:26;99487.34;;;6.11;81.07
81897;BME280;71360;43.506;1.500;2024-03-06T07:19:51;99492.66;;;6.11;81.01
81897;BME280;71360;43.506;1.500;2024-03-06T07:22:18;99493.53;;;6.12;80.75
81897;BME280;71360;43.506;1.500;2024-03-06T07:24:44;99487.31;;;6.13;80.75
81897;BME280;71360;43.506;1.500;2024-03-06T07:27:09;99489.00;;;6.15;80.97
81897;BME280;71360;43.506;1.500;2024-03-06T07:29:36;99491.56;;;6.18;80.95
81897;BME280;71360;43.506;1.500;2024-03-06T07:32:02;99490.56;;;6.22;80.63
81897;BME280;71360;43.506;1.500;2024-03-06T07:34:28;99488.59;;;6.29;81.05
81897;BME280;71360;43.506;1.500;2024-03-06T07:36:53;99479.59;;;6.35;80.79
81897;BME280;71360;43.506;1.500;2024-03-06T07:39:20;99488.28;;;6.40;80.98
81897;BME280;71360;43.506;1.500;2024-03-06T07:41:46;99482.75;;;6.48;81.38
81897;BME280;71360;43.506;1.500;2024-03-06T07:44:12;99478.91;;;6.58;81.10
81897;BME280;71360;43.506;1.500;2024-03-06T07:46:38;99485.53;;;6.73;80.83
81897;BME280;71360;43.506;1.500;2024-03-06T07:49:03;99491.34;;;6.86;80.89
81897;BME280;71360;43.506;1.500;2024-03-06T07:51:31;99495.31;;;7.01;81.11
81897;BME280;71360;43.506;1.500;2024-03-06T07:53:56;99489.47;;;7.16;80.99
81897;BME280;71360;43.506;1.500;2024-03-06T07:56:23;99492.56;;;7.31;81.04
81897;BME280;71360;43.506;1.500;2024-03-06T07:58:48;99497.41;;;7.44;80.46
81897;BME280;71360;43.506;1.500;2024-03-06T08:01:15;99496.16;;;7.56;80.68
81897;BME280;71360;43.506;1.500;2024-03-06T08:03:40;99495.78;;;7.67;80.58
81897;BME280;71360;43.506;1.500;2024-03-06T08:06:07;99501.53;;;7.80;80.47
81897;BME280;71360;43.506;1.500;2024-03-06T08:08:32;99492.31;;;7.90;79.94
81897;BME280;71360;43.506;1.500;2024-03-06T08:10:58;99494.53;;;8.03;80.57
81897;BME280;71360;43.506;1.500;2024-03-06T08:13:23;99502.97;;;8.14;80.22
81897;BME280;71360;43.506;1.500;2024-03-06T08:15:49;99493.63;;;8.27;79.60
81897;BME280;71360;43.506;1.500;2024-03-06T08:18:14;99496.75;;;8.39;80.04
81897;BME280;71360;43.506;1.500;2024-03-06T08:20:40;99508.91;;;8.48;79.71
81897;BME280;71360;43.506;1.500;2024-03-06T08:23:07;99496.94;;;8.58;79.37
81897;BME280;71360;43.506;1.500;2024-03-06T08:25:33;99513.47;;;8.68;79.25
81897;BME280;71360;43.506;1.500;2024-03-06T08:27:58;99509.72;;;8.73;79.42
81897;BME280;71360;43.506;1.500;2024-03-06T08:30:24;99507.59;;;8.82;79.37
81897;BME280;71360;43.506;1.500;2024-03-06T08:32:50;99510.78;;;8.91;79.06
81897;BME280;71360;43.506;1.500;2024-03-06T08:35:16;99513.09;;;9.01;78.89
81897;BME280;71360;43.506;1.500;2024-03-06T08:37:43;99516.31;;;9.09;79.18
81897;BME280;71360;43.506;1.500;2024-03-06T08:40:09;99522.06;;;9.20;78.78
81897;BME280;71360;43.506;1.500;2024-03-06T08:42:40;99519.78;;;9.33;78.40
81897;BME280;71360;43.506;1.500;2024-03-06T08:45:07;99514.72;;;9.48;78.15
81897;BME280;71360;43.506;1.500;2024-03-06T08:47:33;99520.50;;;9.59;78.30
81897;BME280;71360;43.506;1.500;2024-03-06T08:49:59;99522.72;;;9.70;77.54
81897;BME280;71360;43.506;1.500;2024-03-06T08:52:24;99525.94;;;9.78;76.94
81897;BME280;71360;43.506;1.500;2024-03-06T08:54:50;99525.66;;;9.84;76.41
81897;BME280;71360;43.506;1.500;2024-03-06T08:57:15;99523.66;;;9.89;76.38
81897;BME280;71360;43.506;1.500;2024-03-06T08:59:41;99517.03;;;9.98;76.35
81897;BME280;71360;43.506;1.500;2024-03-06T09:02:16;99520.97;;;10.10;75.90
81897;BME280;71360;43.506;1.500;2024-03-06T09:04:43;99516.84;;;10.23;75.10
81897;BME280;71360;43.506;1.500;2024-03-06T09:07:08;99523.47;;;10.35;74.54
81897;BME280;71360;43.506;1.500;2024-03-06T09:09:35;99519.50;;;10.44;74.76
81897;BME280;71360;43.506;1.500;2024-03-06T09:12:05;99517.22;;;10.55;74.22
81897;BME280;71360;43.506;1.500;2024-03-06T09:14:35;99523.84;;;10.66;73.23
81897;BME280;71360;43.506;1.500;2024-03-06T09:17:01;99518.25;;;10.72;72.70
81897;BME280;71360;43.506;1.500;2024-03-06T09:19:27;99517.94;;;10.78;72.38
81897;BME280;71360;43.506;1.500;2024-03-06T09:21:53;99512.31;;;10.84;71.24
81897;BME280;71360;43.506;1.500;2024-03-06T09:24:20;99521.13;;;10.86;71.11
81897;BME280;71360;43.506;1.500;2024-03-06T09:26:47;99523.66;;;10.89;70.93
81897;BME280;71360;43.506;1.500;2024-03-06T09:29:13;99532.31;;;10.94;70.63
81897;BME280;71360;43.506;1.500;2024-03-06T09:31:38;99529.53;;;10.97;70.33
81897;BME280;71360;43.506;1.500;2024-03-06T09:34:04;99534.56;;;11.04;70.20
81897;BME280;71360;43.506;1.500;2024-03-06T09:36:29;99532.53;;;11.09;69.71
81897;BME280;71360;43.506;1.500;2024-03-06T09:38:55;99533.25;;;11.12;68.79
81897;BME280;71360;43.506;1.500;2024-03-06T09:41:21;99530.34;;;11.17;69.16
81897;BME280;71360;43.506;1.500;2024-03-06T09:43:47;99530.06;;;11.23;68.61
81897;BME280;71360;43.506;1.500;2024-03-06T09:46:13;99535.09;;;11.29;68.75
81897;BME280;71360;43.506;1.500;2024-03-06T09:48:47;99533.09;;;11.35;68.70
81897;BME280;71360;43.506;1.500;2024-03-06T09:51:13;99527.28;;;11.44;68.85
81897;BME280;71360;43.506;1.500;2024-03-06T09:53:42;99527.75;;;11.52;68.32
81897;BME280;71360;43.506;1.500;2024-03-06T09:56:10;99522.97;;;11.59;68.02
81897;BME280;71360;43.506;1.500;2024-03-06T09:58:36;99531.56;;;11.65;67.89
81897;BME280;71360;43.506;1.500;2024-03-06T10:01:02;99520.69;;;11.69;67.86
81897;BME280;71360;43.506;1.500;2024-03-06T10:03:33;99515.34;;;11.69;67.08
81897;BME280;71360;43.506;1.500;2024-03-06T10:05:59;99518.00;;;11.69;67.67
81897;BME280;71360;43.506;1.500;2024-03-06T10:08:24;99520.59;;;11.70;66.72
81897;BME280;71360;43.506;1.500;2024-03-06T10:10:52;99524.13;;;11.71;66.72
81897;BME280;71360;43.506;1.500;2024-03-06T10:13:17;99517.06;;;11.70;67.34
81897;BME280;71360;43.506;1.500;2024-03-06T10:16:09;99520.84;;;11.65;67.81
81897;BME280;71360;43.506;1.500;2024-03-06T10:18:36;99519.03;;;11.66;67.71
81897;BME280;71360;43.506;1.500;2024-03-06T10:21:04;99519.75;;;11.70;68.19
81897;BME280;71360;43.506;1.500;2024-03-06T10:23:31;99516.19;;;11.69;68.20
81897;BME280;71360;43.506;1.500;2024-03-06T10:25:56;99512.81;;;11.65;67.74
81897;BME280;71360;43.506;1.500;2024-03-06T10:28:23;99510.28;;;11.62;67.98
81897;BME280;71360;43.506;1.500;2024-03-06T10:30:49;99504.06;;;11.62;68.43
81897;BME280;71360;43.506;1.500;2024-03-06T10:33:16;99504.06;;;11.62;68.31
81897;BME280;71360;43.506;1.500;2024-03-06T10:35:47;99511.25;;;11.61;68.29
81897;BME280;71360;43.506;1.500;2024-03-06T10:38:20;99508.69;;;11.58;68.50
81897;BME280;71360;43.506;1.500;2024-03-06T10:40:46;99508.69;;;11.58;67.97
81897;BME280;71360;43.506;1.500;2024-03-06T10:43:12;99501.63;;;11.57;68.27
81897;BME280;71360;43.506;1.500;2024-03-06T10:45:48;99505.09;;;11.59;67.95
81897;BME280;71360;43.506;1.500;2024-03-06T10:48:14;99495.19;;;11.61;67.96
81897;BME280;71360;43.506;1.500;2024-03-06T10:50:41;99492.50;;;11.61;67.92
81897;BME280;71360;43.506;1.500;2024-03-06T10:53:12;99494.13;;;11.64;68.20
81897;BME280;71360;43.506;1.500;2024-03-06T10:55:38;99486.91;;;11.66;67.99
81897;BME280;71360;43.506;1.500;2024-03-06T10:58:08;99490.31;;;11.70;67.95
81897;BME280;71360;43.506;1.500;2024-03-06T11:00:41;99483.22;;;11.69;68.02
81897;BME280;71360;43.506;1.500;2024-03-06T11:03:08;99482.41;;;11.66;67.69
81897;BME280;71360;43.506;1.500;2024-03-06T11:05:43;99476.91;;;11.70;67.64
81897;BME280;71360;43.506;1.500;2024-03-06T11:08:12;99482.28;;;11.70;67.55
81897;BME280;71360;43.506;1.500;2024-03-06T11:10:40;99470.47;;;11.74;67.84
81897;BME280;71360;43.506;1.500;2024-03-06T11:13:25;99469.94;;;11.83;67.00
81897;BME280;71360;43.506;1.500;2024-03-06T11:15:57;99465.16;;;11.90;66.98
81897;BME280;71360;43.506;1.500;2024-03-06T11:27:06;99467.63;;;11.94;66.33
81897;BME280;71360;43.506;1.500;2024-03-06T11:30:09;99466.34;;;12.02;66.73
81897;BME280;71360;43.506;1.500;2024-03-06T11:33:00;99461.44;;;12.10;67.19
81897;BME280;71360;43.506;1.500;2024-03-06T11:35:28;99453.72;;;12.21;66.82
81897;BME280;71360;43.506;1.500;2024-03-06T11:41:16;99450.97;;;12.39;66.28
81897;BME280;71360;43.506;1.500;2024-03-06T11:43:43;99451.41;;;12.47;66.09
81897;BME280;71360;43.506;1.500;2024-03-06T11:46:10;99446.53;;;12.55;65.74
81897;BME280;71360;43.506;1.500;2024-03-06T11:52:06;99444.63;;;12.73;64.91
81897;BME280;71360;43.506;1.500;2024-03-06T11:54:33;99438.97;;;12.78;63.70
81897;BME280;71360;43.506;1.500;2024-03-06T11:57:00;99437.94;;;12.80;63.88
81897;BME280;71360;43.506;1.500;2024-03-06T11:59:31;99443.22;;;12.82;63.88
81897;BME280;71360;43.506;1.500;2024-03-06T12:02:06;99427.13;;;12.82;63.93
81897;BME280;71360;43.506;1.500;2024-03-06T12:04:33;99436.13;;;12.81;63.80
81897;BME280;71360;43.506;1.500;2024-03-06T12:07:00;99421.16;;;12.77;63.69
81897;BME280;71360;43.506;1.500;2024-03-06T12:09:32;99426.88;;;12.71;63.76
81897;BME280;71360;43.506;1.500;2024-03-06T12:11:58;99415.44;;;12.67;64.47
81897;BME280;71360;43.506;1.500;2024-03-06T12:14:23;99411.03;;;12.66;64.44
81897;BME280;71360;43.506;1.500;2024-03-06T12:17:00;99404.63;;;12.69;64.54
81897;BME280;71360;43.506;1.500;2024-03-06T12:19:33;99404.56;;;12.70;64.24
81897;BME280;71360;43.506;1.500;2024-03-06T12:22:00;99396.44;;;12.72;64.74
81897;BME280;71360;43.506;1.500;2024-03-06T12:24:26;99398.94;;;12.75;64.37
81897;BME280;71360;43.506;1.500;2024-03-06T12:27:06;99388.28;;;12.73;64.09
81897;BME280;71360;43.506;1.500;2024-03-06T12:29:34;99388.22;;;12.75;64.04
81897;BME280;71360;43.506;1.500;2024-03-06T12:32:01;99395.88;;;12.81;64.41
81897;BME280;71360;43.506;1.500;2024-03-06T12:34:27;99391.13;;;12.86;64.33
81897;BME280;71360;43.506;1.500;2024-03-06T12:36:53;99387.16;;;12.93;64.02
81897;BME280;71360;43.506;1.500;2024-03-06T12:39:19;99380.28;;;13.04;64.64
81897;BME280;71360;43.506;1.500;2024-03-06T12:41:49;99370.28;;;13.22;64.88
81897;BME280;71360;43.506;1.500;2024-03-06T12:44:15;99368.38;;;13.40;64.62
81897;BME280;71360;43.506;1.500;2024-03-06T12:46:41;99367.34;;;13.57;64.09
81897;BME280;71360;43.506;1.500;2024-03-06T12:49:07;99377.22;;;13.71;64.04
81897;BME280;71360;43.506;1.500;2024-03-06T12:51:32;99361.44;;;13.80;63.22
81897;BME280;71360;43.506;1.500;2024-03-06T12:53:58;99355.94;;;13.96;63.18
81897;BME280;71360;43.506;1.500;2024-03-06T12:56:23;99347.19;;;14.07;62.58
81897;BME280;71360;43.506;1.500;2024-03-06T12:58:53;99344.34;;;14.10;62.23
81897;BME280;71360;43.506;1.500;2024-03-06T13:01:19;99340.88;;;14.08;62.52
81897;BME280;71360;43.506;1.500;2024-03-06T13:03:45;99346.03;;;14.11;62.63
81897;BME280;71360;43.506;1.500;2024-03-06T13:06:10;99341.91;;;14.20;62.63
81897;BME280;71360;43.506;1.500;2024-03-06T13:08:36;99342.19;;;14.30;61.67
81897;BME280;71360;43.506;1.500;2024-03-06T13:11:02;99338.44;;;14.32;61.83
81897;BME280;71360;43.506;1.500;2024-03-06T13:13:28;99339.00;;;14.38;61.93
81897;BME280;71360;43.506;1.500;2024-03-06T13:15:55;99331.94;;;14.49;61.46
81897;BME280;71360;43.506;1.500;2024-03-06T13:18:21;99327.03;;;14.56;60.89
81897;BME280;71360;43.506;1.500;2024-03-06T13:20:47;99330.28;;;14.61;60.95